Time;durP1;ratioP1;P1;durP2;ratioP2;P2;SDS_P1;SDS_P2;PMS_P1;PMS_P2;Temp;Humidity;BMP_temperature;BMP_pressure;BME280_temperature;BME280_humidity;BME280_pressure;Samples;Min_cycle;Max_cycle;Signal;HPM_P1;HPM_P2
2022/10/25 00:02:16;;;;;;;11.70;8.38;;;14.50;99.90;;;;;;5071785;28;20468;-75
2022/10/25 00:04:43;;;;;;;;;;;14.50;99.90;;;;;;5072115;28;20032;-75
2022/10/25 00:07:08;;;;;;;15.85;8.00;;;14.50;99.90;;;;;;5071185;28;19958;-75
2022/10/25 00:09:34;;;;;;;10.93;8.15;;;14.40;99.90;;;;;;5072340;28;20028;-75
2022/10/25 00:11:59;;;;;;;10.73;7.43;;;14.40;99.90;;;;;;5074395;28;20025;-76
2022/10/25 00:14:26;;;;;;;13.18;9.20;;;14.40;99.90;;;;;;5075191;28;20415;-75
2022/10/25 00:16:52;;;;;;;12.60;8.48;;;14.40;99.90;;;;;;5074509;28;20070;-76
2022/10/25 00:19:17;;;;;;;11.65;7.90;;;14.40;99.90;;;;;;5075387;28;20024;-75
2022/10/25 00:21:43;;;;;;;11.63;8.45;;;14.40;99.90;;;;;;5075049;28;20078;-75
2022/10/25 00:24:11;;;;;;;13.40;8.35;;;14.40;99.90;;;;;;5074515;28;20631;-75
2022/10/25 00:26:40;;;;;;;10.98;7.80;;;14.40;99.90;;;;;;5074969;28;20024;-75
2022/10/25 00:29:08;;;;;;;11.90;8.15;;;14.40;99.90;;;;;;5074334;28;20354;-76
2022/10/25 00:31:35;;;;;;;10.32;7.78;;;14.40;99.90;;;;;;5075131;28;20107;-75
2022/10/25 00:34:01;;;;;;;10.60;7.00;;;14.40;99.90;;;;;;5074446;28;20028;-75
2022/10/25 00:36:27;;;;;;;7.50;6.15;;;14.40;99.90;;;;;;5075173;28;20024;-74
2022/10/25 00:38:55;;;;;;;12.27;6.93;;;14.40;99.90;;;;;;5074026;28;20024;-76
2022/10/25 00:41:23;;;;;;;11.50;5.90;;;14.40;99.90;;;;;;5074533;28;20025;-75
2022/10/25 00:43:51;;;;;;;9.32;6.20;;;14.40;99.90;;;;;;5056649;28;20380;-78
2022/10/25 00:46:18;;;;;;;8.68;6.35;;;14.40;99.90;;;;;;5074519;28;20465;-75
2022/10/25 00:48:56;;;;;;;7.63;5.50;;;14.40;99.90;;;;;;5074614;28;20024;-75
2022/10/25 00:51:29;;;;;;;9.95;5.13;;;14.40;99.90;;;;;;5074865;28;20031;-76
2022/10/25 00:53:55;;;;;;;8.85;5.55;;;14.40;99.90;;;;;;5073881;28;20078;-76
2022/10/25 00:56:26;;;;;;;7.70;4.63;;;14.40;99.90;;;;;;5074311;28;20052;-75
2022/10/25 00:58:56;;;;;;;6.90;4.10;;;14.40;99.90;;;;;;5073972;28;20112;-81
2022/10/25 01:01:23;;;;;;;8.57;4.45;;;14.40;99.90;;;;;;5056718;28;20028;-75
2022/10/25 01:03:51;;;;;;;6.88;4.57;;;14.30;99.90;;;;;;5074327;28;20028;-75
2022/10/25 01:06:27;;;;;;;10.23;4.25;;;14.40;99.90;;;;;;5065795;28;20029;-75
2022/10/25 01:08:54;;;;;;;10.20;4.07;;;14.30;99.90;;;;;;5056198;28;20457;-82
2022/10/25 01:11:20;;;;;;;7.20;3.80;;;14.30;99.90;;;;;;5080260;28;20024;-75
2022/10/25 01:13:47;;;;;;;6.57;3.83;;;14.30;99.90;;;;;;5094306;28;20112;-75
2022/10/25 01:16:35;;;;;;;7.90;3.95;;;14.30;99.90;;;;;;5093704;28;20036;-74
2022/10/25 01:19:43;;;;;;;4.78;3.35;;;14.30;99.90;;;;;;5075390;28;20059;-74
2022/10/25 01:22:19;;;;;;;7.05;2.80;;;14.40;99.90;;;;;;5078585;28;20021;-75
2022/10/25 01:25:02;;;;;;;5.05;2.72;;;14.40;99.90;;;;;;5074159;28;20032;-74
2022/10/25 01:27:50;;;;;;;6.03;2.80;;;14.30;99.90;;;;;;5073931;28;20032;-75
2022/10/25 01:30:23;;;;;;;5.70;2.70;;;14.30;99.90;;;;;;5073342;28;20487;-75
2022/10/25 01:32:57;;;;;;;3.78;3.10;;;14.30;99.90;;;;;;5055716;28;20485;-75
2022/10/25 01:35:31;;;;;;;4.13;2.95;;;14.30;99.90;;;;;;5073671;28;20067;-74
2022/10/25 01:37:59;;;;;;;5.75;2.75;;;14.30;99.90;;;;;;5073172;28;20481;-82
2022/10/25 01:40:51;;;;;;;6.05;2.95;;;14.30;99.90;;;;;;5055556;28;20025;-76
2022/10/25 01:43:33;;;;;;;4.75;2.85;;;14.30;99.90;;;;;;5073082;28;20082;-76
2022/10/25 01:46:35;;;;;;;7.85;3.55;;;14.40;99.90;;;;;;5073174;28;20036;-75
2022/10/25 01:49:07;;;;;;;4.05;3.30;;;14.40;99.90;;;;;;5072685;28;20021;-75
2022/10/25 01:51:35;;;;;;;5.18;3.00;;;14.40;99.90;;;;;;5073156;28;20047;-75
2022/10/25 01:54:01;;;;;;;4.55;2.95;;;14.40;99.90;;;;;;5072712;28;20025;-75
2022/10/25 01:56:31;;;;;;;4.00;2.53;;;14.40;99.90;;;;;;5073278;28;20040;-75
2022/10/25 01:58:59;;;;;;;5.13;2.55;;;14.40;99.90;;;;;;5072837;28;20036;-81
2022/10/25 02:02:04;;;;;;;3.40;2.13;;;14.40;99.90;;;;;;5072916;28;20523;-75
2022/10/25 02:04:49;;;;;;;6.10;2.33;;;14.40;99.90;;;;;;5072070;28;20162;-75
2022/10/25 02:07:26;;;;;;;5.22;1.95;;;14.40;99.90;;;;;;5072409;28;20032;-76
2022/10/25 02:09:58;;;;;;;3.15;1.63;;;14.40;99.90;;;;;;5073184;28;20033;-75
2022/10/25 02:12:30;;;;;;;4.95;1.45;;;14.30;99.90;;;;;;5073412;28;20103;-76
2022/10/25 02:15:08;;;;;;;3.67;1.30;;;14.40;99.90;;;;;;5072568;28;20079;-75
2022/10/25 02:17:47;;;;;;;1.67;1.20;;;14.30;99.90;;;;;;5072987;28;20103;-75
2022/10/25 02:20:17;;;;;;;1.30;1.05;;;14.30;99.90;;;;;;5072346;28;20032;-75
2022/10/25 02:22:44;;;;;;;3.08;1.30;;;14.30;99.90;;;;;;5072709;28;20108;-74
2022/10/25 02:25:12;;;;;;;1.70;1.25;;;14.30;99.90;;;;;;5071878;28;20037;-74
2022/10/25 02:27:39;;;;;;;2.65;1.02;;;14.30;99.90;;;;;;5072445;28;20028;-76
2022/10/25 02:30:06;;;;;;;3.72;1.38;;;14.30;99.90;;;;;;5072047;28;20028;-76
2022/10/25 02:32:33;;;;;;;1.65;1.20;;;14.30;99.90;;;;;;5072538;28;20025;-75
2022/10/25 02:34:58;;;;;;;2.13;1.20;;;14.30;99.90;;;;;;5072651;28;20468;-80
2022/10/25 02:37:24;;;;;;;2.70;1.30;;;14.30;99.90;;;;;;5054240;28;20039;-76
2022/10/25 02:39:50;;;;;;;1.60;1.10;;;14.30;99.90;;;;;;5054717;28;20526;-76
2022/10/25 02:42:16;;;;;;;1.75;1.27;;;14.30;99.90;;;;;;5072062;28;20021;-76
2022/10/25 02:44:41;;;;;;;2.83;1.55;;;14.30;99.90;;;;;;5072563;28;20032;-75
2022/10/25 02:47:07;;;;;;;4.75;1.27;;;14.30;99.90;;;;;;5071860;28;20050;-76
2022/10/25 02:49:32;;;;;;;4.45;1.67;;;14.30;99.90;;;;;;5072505;28;20032;-75
2022/10/25 02:51:58;;;;;;;1.25;0.90;;;14.30;99.90;;;;;;5072138;28;20028;-76
2022/10/25 02:54:24;;;;;;;1.30;1.00;;;14.30;99.90;;;;;;5071952;28;20063;-76
2022/10/25 02:56:51;;;;;;;2.92;1.10;;;14.30;99.90;;;;;;5072444;28;20053;-75
2022/10/25 02:59:18;;;;;;;1.52;1.00;;;14.30;99.90;;;;;;5071646;28;20104;-75
2022/10/25 03:01:44;;;;;;;1.65;0.90;;;14.40;99.90;;;;;;5072131;28;20511;-75
2022/10/25 03:04:09;;;;;;;1.52;0.80;;;14.40;99.90;;;;;;5072052;28;20025;-76
2022/10/25 03:06:35;;;;;;;0.95;0.80;;;14.40;99.90;;;;;;5071908;28;20354;-75
2022/10/25 03:09:01;;;;;;;2.67;0.93;;;14.50;99.90;;;;;;5072058;28;20039;-76
2022/10/25 03:11:27;;;;;;;2.15;0.73;;;14.50;99.90;;;;;;5072292;28;20354;-75
2022/10/25 03:13:52;;;;;;;3.50;1.13;;;14.50;99.90;;;;;;5082708;28;20536;-75
2022/10/25 03:16:18;;;;;;;1.67;1.13;;;14.50;99.90;;;;;;5088217;28;20039;-75
2022/10/25 03:18:44;;;;;;;1.52;1.08;;;14.50;99.90;;;;;;5072391;28;20024;-75
2022/10/25 03:21:10;;;;;;;3.58;0.95;;;14.50;99.90;;;;;;5071140;28;20069;-75
2022/10/25 03:23:35;;;;;;;2.78;1.02;;;14.60;99.90;;;;;;5072202;28;20029;-74
2022/10/25 03:26:01;;;;;;;3.28;1.00;;;14.60;99.90;;;;;;5072088;28;20028;-74
2022/10/25 03:28:28;;;;;;;2.97;1.13;;;14.50;99.90;;;;;;5071499;28;20024;-74
2022/10/25 03:30:55;;;;;;;3.78;1.10;;;14.60;99.90;;;;;;5072017;28;20056;-75
2022/10/25 03:33:22;;;;;;;3.70;1.00;;;14.60;99.90;;;;;;5071646;28;20048;-75
2022/10/25 03:35:52;;;;;;;2.03;1.02;;;14.60;99.90;;;;;;5072113;28;20119;-75
2022/10/25 03:38:18;;;;;;;1.80;1.20;;;14.70;99.90;;;;;;5071687;28;20032;-75
2022/10/25 03:40:44;;;;;;;1.65;0.90;;;14.70;99.90;;;;;;5071767;28;20035;-74
2022/10/25 03:43:09;;;;;;;2.80;1.08;;;14.70;99.90;;;;;;5071549;28;20095;-75
2022/10/25 03:45:35;;;;;;;4.53;1.20;;;14.70;99.90;;;;;;5074666;28;20055;-75
2022/10/25 03:48:01;;;;;;;2.78;1.00;;;14.80;99.90;;;;;;5075422;28;20084;-75
2022/10/25 03:50:26;;;;;;;3.38;1.10;;;14.80;99.90;;;;;;5057297;28;20021;-74
2022/10/25 03:52:52;;;;;;;1.17;0.90;;;14.70;99.90;;;;;;5075182;28;20028;-75
2022/10/25 03:55:18;;;;;;;1.58;1.00;;;14.70;99.90;;;;;;5074978;28;20111;-75
2022/10/25 03:57:43;;;;;;;1.20;0.98;;;14.70;99.90;;;;;;5075660;28;20052;-74
2022/10/25 04:00:10;;;;;;;1.52;1.08;;;14.70;99.90;;;;;;5074198;28;20078;-75
2022/10/25 04:02:36;;;;;;;1.67;0.98;;;14.70;99.90;;;;;;5075591;28;20032;-75
2022/10/25 04:05:01;;;;;;;2.75;1.15;;;14.70;99.90;;;;;;5075547;28;20106;-75
2022/10/25 04:07:27;;;;;;;2.20;1.05;;;14.70;99.90;;;;;;5040174;28;20103;-75
2022/10/25 04:09:52;;;;;;;4.05;1.08;;;14.70;99.90;;;;;;5074802;28;20024;-75
2022/10/25 04:12:18;;;;;;;1.30;0.88;;;14.70;99.90;;;;;;5074229;28;20029;-74
2022/10/25 04:14:43;;;;;;;1.08;0.98;;;14.70;99.90;;;;;;5075045;28;20110;-74
2022/10/25 04:17:09;;;;;;;0.85;0.80;;;14.80;99.90;;;;;;5056932;28;20052;-80
2022/10/25 04:19:35;;;;;;;4.53;1.02;;;14.80;99.90;;;;;;5075357;28;20107;-75
2022/10/25 04:22:01;;;;;;;1.90;0.85;;;14.80;99.90;;;;;;5075152;28;20025;-75
2022/10/25 04:24:27;;;;;;;3.20;0.93;;;14.90;99.90;;;;;;5073996;28;20082;-75
2022/10/25 04:26:53;;;;;;;2.05;1.05;;;14.90;99.90;;;;;;5055643;28;20396;-76
2022/10/25 04:29:18;;;;;;;3.65;1.00;;;14.90;99.90;;;;;;5073739;28;20033;-75
2022/10/25 04:31:44;;;;;;;1.55;1.10;;;14.90;99.90;;;;;;5074900;28;20519;-75
2022/10/25 04:34:10;;;;;;;2.05;0.90;;;15.00;99.90;;;;;;5074251;28;20024;-80
2022/10/25 04:36:37;;;;;;;2.22;0.90;;;15.00;99.90;;;;;;5074551;28;20047;-75
2022/10/25 04:39:03;;;;;;;1.33;0.85;;;15.00;99.90;;;;;;5074530;28;20030;-73
2022/10/25 04:41:29;;;;;;;1.30;0.80;;;15.00;99.90;;;;;;5073826;28;20055;-75
2022/10/25 04:43:55;;;;;;;0.93;0.70;;;15.00;99.90;;;;;;5074205;28;20025;-75
2022/10/25 04:46:21;;;;;;;1.48;0.80;;;15.00;99.90;;;;;;5074077;28;20078;-75
2022/10/25 04:48:47;;;;;;;4.30;0.90;;;15.00;99.90;;;;;;5074426;28;20024;-75
2022/10/25 04:51:13;;;;;;;2.38;0.88;;;15.10;99.90;;;;;;5073747;28;20086;-73
2022/10/25 04:53:38;;;;;;;0.90;0.73;;;15.10;99.90;;;;;;5074585;28;20052;-74
2022/10/25 04:56:09;;;;;;;1.52;0.90;;;15.10;99.90;;;;;;5073058;28;20086;-73
2022/10/25 04:58:35;;;;;;;2.42;1.00;;;15.10;99.90;;;;;;5074167;28;20384;-73
2022/10/25 05:01:09;;;;;;;1.38;0.90;;;15.10;99.90;;;;;;5074368;28;20051;-74
2022/10/25 05:03:36;;;;;;;1.05;0.80;;;15.10;99.90;;;;;;5074464;28;20067;-74
2022/10/25 05:06:08;;;;;;;1.95;1.00;;;15.10;99.90;;;;;;5073841;28;20029;-74
2022/10/25 05:08:34;;;;;;;2.85;1.02;;;15.10;99.90;;;;;;5073858;28;20350;-74
2022/10/25 05:11:00;;;;;;;3.88;1.00;;;15.10;99.90;;;;;;5073662;28;20078;-74
2022/10/25 05:13:26;;;;;;;5.50;1.00;;;15.10;99.90;;;;;;5058605;28;20020;-74
2022/10/25 05:15:55;;;;;;;2.13;0.90;;;15.00;99.90;;;;;;5093268;28;20448;-74
2022/10/25 05:18:21;;;;;;;2.15;0.85;;;15.10;99.90;;;;;;5093329;28;20032;-74
2022/10/25 05:20:57;;;;;;;1.52;0.98;;;15.10;99.90;;;;;;5094145;28;20024;-73
2022/10/25 05:23:23;;;;;;;1.40;1.00;;;15.10;99.90;;;;;;5065115;28;20039;-74
2022/10/25 05:26:09;;;;;;;1.52;1.13;;;15.10;99.90;;;;;;5073878;28;20028;-75
2022/10/25 05:28:36;;;;;;;3.33;1.27;;;15.10;99.90;;;;;;5073465;28;20039;-74
2022/10/25 05:31:12;;;;;;;1.73;1.00;;;15.10;99.90;;;;;;5074087;28;20063;-74
2022/10/25 05:33:37;;;;;;;1.13;1.02;;;15.00;99.90;;;;;;5073675;28;20479;-74
2022/10/25 05:36:03;;;;;;;1.92;1.20;;;15.00;99.90;;;;;;5074150;28;20048;-74
2022/10/25 05:38:29;;;;;;;3.70;1.35;;;15.00;99.90;;;;;;5073643;28;20043;-75
2022/10/25 05:40:57;;;;;;;2.15;1.20;;;15.00;99.90;;;;;;5073835;28;20108;-75
2022/10/25 05:43:23;;;;;;;2.70;1.50;;;15.00;99.90;;;;;;5073631;28;20031;-74
2022/10/25 05:45:50;;;;;;;3.30;1.65;;;15.00;99.90;;;;;;5073445;28;20028;-74
2022/10/25 05:48:16;;;;;;;4.13;1.38;;;15.00;99.90;;;;;;5073221;28;20376;-78
2022/10/25 05:50:42;;;;;;;1.45;1.10;;;15.00;99.90;;;;;;5073720;28;20489;-74
2022/10/25 05:53:07;;;;;;;6.57;1.35;;;15.00;99.90;;;;;;5073503;28;20071;-74
2022/10/25 05:55:33;;;;;;;3.67;1.30;;;15.00;99.90;;;;;;5072561;28;20025;-74
2022/10/25 05:57:59;;;;;;;2.42;1.20;;;15.00;99.90;;;;;;5073285;28;20028;-74
2022/10/25 06:00:25;;;;;;;3.90;1.15;;;15.00;99.90;;;;;;5072734;28;20548;-74
2022/10/25 06:02:51;;;;;;;5.13;1.80;;;14.90;99.90;;;;;;5073574;28;20051;-74
2022/10/25 06:05:16;;;;;;;2.67;1.40;;;14.90;99.90;;;;;;5072959;28;20457;-77
2022/10/25 06:07:42;;;;;;;3.83;1.73;;;14.90;99.90;;;;;;5073038;28;20016;-74
2022/10/25 06:10:08;;;;;;;6.45;1.42;;;14.90;99.90;;;;;;5073496;28;20111;-74
2022/10/25 06:12:34;;;;;;;2.60;1.48;;;14.90;99.90;;;;;;5072352;28;20396;-75
2022/10/25 06:14:59;;;;;;;5.97;1.95;;;14.90;99.90;;;;;;5073026;28;20029;-75
2022/10/25 06:17:25;;;;;;;2.22;1.10;;;14.90;99.90;;;;;;5072658;28;20139;-74
2022/10/25 06:19:51;;;;;;;2.00;1.10;;;14.90;99.90;;;;;;5073416;28;20032;-74
2022/10/25 06:22:17;;;;;;;3.65;1.50;;;14.90;99.90;;;;;;5073174;28;20024;-74
2022/10/25 06:24:42;;;;;;;2.28;1.30;;;14.90;99.90;;;;;;5073064;28;20469;-75
2022/10/25 06:27:08;;;;;;;3.63;1.60;;;15.00;99.90;;;;;;5073006;28;20031;-74
2022/10/25 06:29:34;;;;;;;1.50;1.15;;;15.00;99.90;;;;;;5072657;28;20031;-74
2022/10/25 06:31:59;;;;;;;2.55;1.40;;;15.00;99.90;;;;;;5072982;28;20020;-74
2022/10/25 06:34:25;;;;;;;3.67;1.23;;;15.00;99.90;;;;;;5072585;28;20111;-74
2022/10/25 06:36:50;;;;;;;9.13;1.98;;;15.00;99.90;;;;;;5072858;28;20112;-75
2022/10/25 06:39:16;;;;;;;7.57;1.95;;;15.00;99.90;;;;;;5073130;28;20081;-75
2022/10/25 06:41:42;;;;;;;2.17;1.27;;;15.00;99.90;;;;;;5072485;28;20104;-74
2022/10/25 06:44:07;;;;;;;4.40;1.30;;;15.00;99.90;;;;;;5072895;28;20473;-74
2022/10/25 06:46:35;;;;;;;4.38;1.58;;;15.00;99.90;;;;;;5072320;28;20065;-75
2022/10/25 06:49:04;;;;;;;4.25;1.00;;;15.00;99.90;;;;;;5072762;28;20056;-74
2022/10/25 06:51:31;;;;;;;3.20;1.50;;;15.00;99.90;;;;;;5072479;28;20021;-74
2022/10/25 06:53:59;;;;;;;4.60;1.42;;;15.00;99.90;;;;;;5072887;28;20021;-75
2022/10/25 06:56:26;;;;;;;4.72;1.42;;;15.00;99.90;;;;;;5072012;28;20056;-75
2022/10/25 06:58:52;;;;;;;2.45;1.15;;;15.00;99.90;;;;;;5072694;28;20024;-75
2022/10/25 07:01:19;;;;;;;4.00;1.48;;;15.00;99.90;;;;;;5072510;28;20025;-74
2022/10/25 07:03:46;;;;;;;3.00;1.30;;;15.00;99.90;;;;;;5054429;28;20025;-75
2022/10/25 07:06:14;;;;;;;8.63;1.40;;;15.10;99.90;;;;;;5072579;28;20035;-75
2022/10/25 07:08:42;;;;;;;3.15;1.38;;;15.10;99.90;;;;;;5071732;28;20039;-75
2022/10/25 07:11:16;;;;;;;2.17;1.13;;;15.20;99.90;;;;;;5072440;28;20029;-74
2022/10/25 07:13:42;;;;;;;1.10;0.73;;;15.30;99.90;;;;;;5072122;28;20025;-74
2022/10/25 07:16:10;;;;;;;2.38;1.08;;;15.60;99.90;;;;;;5085509;28;20032;-74
2022/10/25 07:18:36;;;;;;;4.07;0.95;;;15.80;99.90;;;;;;5073830;28;20028;-74
2022/10/25 07:21:05;;;;;;;1.70;0.82;;;16.10;99.30;;;;;;5075520;28;20056;-74
2022/10/25 07:23:31;;;;;;;1.58;1.13;;;16.30;99.10;;;;;;5075994;28;20024;-75
2022/10/25 07:25:57;;;;;;;1.17;0.88;;;16.50;98.30;;;;;;5076220;28;20044;-74
2022/10/25 07:28:23;;;;;;;2.30;0.90;;;16.70;97.20;;;;;;5076098;28;20028;-81
2022/10/25 07:30:49;;;;;;;2.63;0.93;;;17.00;97.20;;;;;;5076231;28;20373;-74
2022/10/25 07:33:18;;;;;;;1.35;0.70;;;17.20;96.70;;;;;;5058209;28;20074;-74
2022/10/25 07:35:45;;;;;;;3.58;0.90;;;17.40;93.90;;;;;;5076085;28;20075;-74
2022/10/25 07:38:12;;;;;;;1.50;0.80;;;17.60;92.80;;;;;;5058274;28;20044;-74
2022/10/25 07:40:37;;;;;;;1.35;0.80;;;17.80;91.70;;;;;;5075794;28;20127;-74
2022/10/25 07:43:03;;;;;;;4.10;0.95;;;18.00;91.00;;;;;;5076210;28;20329;-74
2022/10/25 07:45:29;;;;;;;2.60;0.75;;;18.20;90.30;;;;;;5075459;28;20475;-74
2022/10/25 07:47:54;;;;;;;1.02;0.65;;;18.30;88.50;;;;;;5076298;28;20431;-74
2022/10/25 07:50:20;;;;;;;0.60;0.60;;;18.50;86.20;;;;;;5075720;28;20095;-75
2022/10/25 07:52:46;;;;;;;1.20;0.60;;;18.80;85.20;;;;;;5075657;28;20024;-74
2022/10/25 07:55:12;;;;;;;1.10;0.70;;;18.90;84.00;;;;;;5075592;28;20072;-75
2022/10/25 07:57:37;;;;;;;2.83;0.80;;;19.00;82.20;;;;;;5075516;28;20072;-74
2022/10/25 08:00:08;;;;;;;1.55;0.70;;;19.20;80.90;;;;;;5076131;28;20067;-75
2022/10/25 08:02:34;;;;;;;1.90;0.90;;;19.40;79.30;;;;;;5075396;28;20134;-75
2022/10/25 08:05:00;;;;;;;1.08;0.60;;;19.50;79.00;;;;;;5075743;28;20483;-75
2022/10/25 08:07:26;;;;;;;2.33;0.90;;;19.60;79.10;;;;;;5074564;28;20376;-75
2022/10/25 08:09:52;;;;;;;2.30;0.90;;;19.70;78.90;;;;;;5075674;28;20032;-74
2022/10/25 08:12:18;;;;;;;4.90;1.52;;;19.80;77.40;;;;;;5075166;28;20025;-74
2022/10/25 08:14:44;;;;;;;3.70;1.77;;;19.80;75.90;;;;;;5090767;28;20040;-74
2022/10/25 08:17:10;;;;;;;3.80;1.50;;;19.90;77.60;;;;;;5075738;28;20415;-74
2022/10/25 08:19:36;;;;;;;1.95;1.25;;;20.00;77.50;;;;;;5075281;28;20021;-74
2022/10/25 08:22:02;;;;;;;2.25;0.88;;;20.00;74.40;;;;;;5075320;28;20035;-74
2022/10/25 08:24:27;;;;;;;1.38;0.75;;;20.00;74.10;;;;;;5075162;28;20028;-76
2022/10/25 08:26:53;;;;;;;5.60;0.80;;;20.00;73.00;;;;;;5075514;28;20070;-75
2022/10/25 08:29:19;;;;;;;4.63;0.98;;;20.00;72.30;;;;;;5057430;28;20078;-74
2022/10/25 08:31:44;;;;;;;0.80;0.60;;;20.00;72.00;;;;;;5074547;28;20071;-75
2022/10/25 08:34:10;;;;;;;3.67;0.70;;;19.90;72.30;;;;;;5075219;28;20027;-74
2022/10/25 08:36:35;;;;;;;2.05;0.60;;;19.90;71.90;;;;;;5074904;28;20366;-75
2022/10/25 08:39:01;;;;;;;2.33;0.80;;;20.00;72.50;;;;;;5075328;28;20021;-73
2022/10/25 08:41:39;;;;;;;2.05;0.50;;;19.90;71.80;;;;;;5057258;28;20162;-74
2022/10/25 08:44:13;;;;;;;2.92;0.80;;;19.90;71.70;;;;;;5075180;28;20388;-74
2022/10/25 08:46:49;;;;;;;2.33;0.63;;;20.00;71.90;;;;;;5056718;28;20070;-75
2022/10/25 08:49:39;;;;;;;2.00;0.70;;;19.90;71.20;;;;;;5056792;28;20116;-75
2022/10/25 08:52:18;;;;;;;5.32;0.70;;;19.90;71.40;;;;;;5056925;28;20025;-74
2022/10/25 08:54:45;;;;;;;1.27;0.70;;;20.00;70.80;;;;;;5074432;28;20032;-75
2022/10/25 08:57:11;;;;;;;3.05;0.90;;;20.00;71.40;;;;;;5075279;28;20052;-75
2022/10/25 08:59:40;;;;;;;4.68;0.65;;;20.10;70.60;;;;;;5074345;28;20025;-75
2022/10/25 09:02:38;;;;;;;1.33;0.75;;;20.10;70.30;;;;;;5056709;28;20115;-75
2022/10/25 09:05:12;;;;;;;1.52;0.70;;;20.20;70.30;;;;;;5070221;28;20079;-74
2022/10/25 09:07:38;;;;;;;3.00;0.77;;;20.30;69.40;;;;;;5056310;28;20044;-74
2022/10/25 09:10:13;;;;;;;3.17;0.90;;;20.30;69.80;;;;;;5074327;28;20025;-74
2022/10/25 09:12:47;;;;;;;1.80;0.70;;;20.40;68.80;;;;;;5056251;28;20358;-75
2022/10/25 09:15:27;;;;;;;1.75;0.70;;;20.40;68.80;;;;;;5074443;28;20082;-74
2022/10/25 09:17:53;;;;;;;2.35;0.93;;;20.40;68.40;;;;;;5073917;28;20381;-74
2022/10/25 09:20:37;;;;;;;2.55;0.80;;;20.50;67.70;;;;;;5087728;28;20028;-74
2022/10/25 09:23:15;;;;;;;2.42;0.60;;;20.50;67.80;;;;;;5094566;28;20046;-74
2022/10/25 09:26:07;;;;;;;2.63;0.75;;;20.60;67.70;;;;;;5090785;28;20050;-75
2022/10/25 09:28:51;;;;;;;1.80;0.80;;;20.60;67.50;;;;;;5053974;28;20025;-74
2022/10/25 09:31:22;;;;;;;1.80;0.77;;;20.70;67.40;;;;;;5054253;28;20021;-74
2022/10/25 09:33:57;;;;;;;1.00;0.65;;;20.80;67.20;;;;;;5053783;28;20025;-74
2022/10/25 09:36:27;;;;;;;1.33;0.60;;;20.80;65.80;;;;;;5053674;28;20033;-74
2022/10/25 09:38:56;;;;;;;10.52;1.13;;;20.80;66.50;;;;;;5053297;28;20065;-74
2022/10/25 09:41:47;;;;;;;5.25;1.10;;;20.90;65.90;;;;;;5053786;28;20029;-74
2022/10/25 09:44:39;;;;;;;1.05;0.60;;;20.90;65.50;;;;;;5053428;28;20031;-74
2022/10/25 09:47:16;;;;;;;1.08;0.77;;;20.90;64.10;;;;;;5047766;28;20041;-75
2022/10/25 09:49:59;;;;;;;0.52;0.50;;;20.90;63.50;;;;;;5035562;28;20123;-74
2022/10/25 09:52:37;;;;;;;1.20;0.70;;;20.90;63.90;;;;;;5053569;28;20036;-74
2022/10/25 09:55:33;;;;;;;1.17;0.60;;;20.90;63.10;;;;;;5053647;28;20043;-75
2022/10/25 09:57:59;;;;;;;1.42;0.60;;;20.90;63.60;;;;;;5068748;28;20055;-74
2022/10/25 10:00:25;;;;;;;3.08;0.80;;;20.80;62.60;;;;;;5053074;28;20029;-74
2022/10/25 10:02:51;;;;;;;1.77;0.70;;;20.80;63.70;;;;;;5053002;28;20021;-74
2022/10/25 10:05:19;;;;;;;2.13;0.73;;;20.70;63.30;;;;;;5035470;28;20029;-74
2022/10/25 10:07:46;;;;;;;2.67;0.65;;;20.80;64.20;;;;;;5052813;28;20028;-75
2022/10/25 10:10:16;;;;;;;2.92;0.75;;;20.70;63.20;;;;;;5052955;28;20028;-74
2022/10/25 10:12:56;;;;;;;0.80;0.50;;;20.70;63.50;;;;;;5053106;28;20049;-75
2022/10/25 10:15:29;;;;;;;2.47;1.45;;;20.60;64.30;;;;;;5052944;28;20059;-73
2022/10/25 10:18:29;;;;;;;2.60;0.70;;;20.60;63.90;;;;;;5052277;28;20037;-75
2022/10/25 10:21:05;;;;;;;1.95;0.65;;;20.50;64.20;;;;;;5052608;28;20277;-75
2022/10/25 10:23:36;;;;;;;2.05;0.80;;;20.50;64.60;;;;;;5052936;28;20028;-74
2022/10/25 10:26:30;;;;;;;1.88;0.63;;;20.40;64.90;;;;;;5052582;28;20121;-74
2022/10/25 10:29:42;;;;;;;1.63;1.00;;;20.30;65.00;;;;;;5052527;28;20032;-74
2022/10/25 10:32:28;;;;;;;4.10;0.90;;;20.30;65.70;;;;;;5007846;28;20033;-74
2022/10/25 10:34:56;;;;;;;1.50;0.80;;;20.30;65.50;;;;;;5052259;28;20086;-73
2022/10/25 10:37:26;;;;;;;2.30;0.75;;;20.30;65.70;;;;;;5052767;28;20053;-73
2022/10/25 10:39:52;;;;;;;0.43;0.43;;;20.30;66.00;;;;;;5052710;28;20373;-74
2022/10/25 10:42:23;;;;;;;3.13;0.80;;;20.20;65.40;;;;;;5053084;28;20113;-74
2022/10/25 10:45:06;;;;;;;3.13;0.90;;;20.20;66.00;;;;;;5052341;28;20061;-73
2022/10/25 10:47:43;;;;;;;3.13;0.88;;;20.30;66.10;;;;;;5052653;28;20036;-74
2022/10/25 10:50:21;;;;;;;3.95;0.93;;;20.30;66.50;;;;;;5052685;28;20059;-72
2022/10/25 10:53:05;;;;;;;1.52;0.80;;;20.30;66.90;;;;;;5052369;28;20029;-73
2022/10/25 10:55:31;;;;;;;1.73;0.60;;;20.40;66.80;;;;;;5051215;28;20469;-73
2022/10/25 10:58:04;;;;;;;1.10;0.68;;;20.50;65.40;;;;;;5052183;28;20024;-74
2022/10/25 11:00:31;;;;;;;4.60;0.63;;;20.50;65.30;;;;;;5052548;28;20415;-73
2022/10/25 11:02:56;;;;;;;2.28;0.60;;;20.50;64.80;;;;;;5052163;28;20096;-75
2022/10/25 11:05:30;;;;;;;2.55;0.70;;;20.50;65.40;;;;;;5052415;28;20072;-74
2022/10/25 11:07:59;;;;;;;2.80;1.08;;;20.50;65.80;;;;;;5051705;28;20474;-74
2022/10/25 11:10:25;;;;;;;3.08;0.60;;;20.50;65.30;;;;;;5052485;28;20367;-74
2022/10/25 11:13:07;;;;;;;0.93;0.73;;;20.60;65.80;;;;;;5052040;28;20031;-73
2022/10/25 11:15:48;;;;;;;2.67;0.90;;;20.60;65.00;;;;;;5051972;28;20032;-73
2022/10/25 11:18:16;;;;;;;;;;;20.60;64.30;;;;;;5052984;28;20108;-73
2022/10/25 11:20:52;;;;;;;3.20;0.85;;;20.50;64.10;;;;;;5033985;28;19991;-74
2022/10/25 11:23:43;;;;;;;2.05;0.68;;;20.50;64.80;;;;;;5086810;28;20082;-74
2022/10/25 11:26:27;;;;;;;2.25;0.70;;;20.60;64.80;;;;;;5087496;28;20105;-74
2022/10/25 11:29:22;;;;;;;1.88;0.70;;;20.60;64.80;;;;;;5079261;28;20028;-74
2022/10/25 11:32:11;;;;;;;0.93;0.57;;;20.60;65.40;;;;;;5054050;28;20429;-74
2022/10/25 11:34:55;;;;;;;1.77;0.80;;;20.70;64.00;;;;;;5007945;28;20033;-73
2022/10/25 11:37:33;;;;;;;1.55;0.60;;;20.60;63.80;;;;;;5054204;28;20530;-73
2022/10/25 11:40:12;;;;;;;5.20;0.80;;;20.70;63.00;;;;;;5071879;28;20025;-73
2022/10/25 11:43:15;;;;;;;0.90;0.57;;;20.70;62.80;;;;;;5072178;28;20064;-73
2022/10/25 11:45:45;;;;;;;0.73;0.60;;;20.70;62.60;;;;;;5072295;28;20035;-73
2022/10/25 11:48:46;;;;;;;1.13;0.70;;;20.70;63.00;;;;;;5072170;28;20028;-74
2022/10/25 11:51:27;;;;;;;1.88;0.65;;;20.70;62.90;;;;;;5071994;28;20469;-74
2022/10/25 11:54:05;;;;;;;1.05;0.80;;;20.70;62.60;;;;;;5071569;28;20106;-73
2022/10/25 11:56:48;;;;;;;2.13;1.13;;;20.70;63.50;;;;;;5065386;28;20059;-74
2022/10/25 11:59:31;;;;;;;1.60;0.57;;;20.60;62.70;;;;;;5072092;28;20021;-74
2022/10/25 12:02:12;;;;;;;1.90;0.82;;;20.60;62.90;;;;;;5053837;28;20020;-74
2022/10/25 12:04:53;;;;;;;5.07;0.80;;;20.60;63.10;;;;;;5071940;28;20103;-74
2022/10/25 12:07:28;;;;;;;3.72;1.17;;;20.70;63.70;;;;;;5075713;28;20340;-73
2022/10/25 12:10:21;;;;;;;2.00;0.80;;;20.70;63.20;;;;;;5075086;28;20050;-73
2022/10/25 12:13:01;;;;;;;3.78;0.80;;;20.70;62.20;;;;;;5075314;28;20032;-74
2022/10/25 12:15:37;;;;;;;1.00;0.75;;;20.80;63.00;;;;;;5075516;28;20139;-75
2022/10/25 12:18:05;;;;;;;3.83;0.80;;;20.90;61.80;;;;;;5075141;28;20021;-73
2022/10/25 12:20:32;;;;;;;1.48;0.70;;;21.00;61.60;;;;;;5075272;28;20573;-73
2022/10/25 12:23:02;;;;;;;2.92;0.73;;;21.00;61.40;;;;;;5074931;28;20407;-74
2022/10/25 12:25:38;;;;;;;3.17;0.60;;;21.00;61.70;;;;;;5075336;28;20519;-74
2022/10/25 12:28:22;;;;;;;4.15;0.80;;;20.90;61.90;;;;;;5074759;28;20070;-74
2022/10/25 12:30:49;;;;;;;4.50;0.90;;;21.00;62.40;;;;;;5056893;28;20025;-74
2022/10/25 12:33:22;;;;;;;1.25;0.60;;;20.90;62.80;;;;;;5075388;28;20065;-73
2022/10/25 12:35:51;;;;;;;3.15;0.80;;;20.90;63.30;;;;;;5074849;28;20461;-74
2022/10/25 12:38:26;;;;;;;3.58;1.35;;;20.80;62.70;;;;;;5057074;28;20492;-74
2022/10/25 12:40:57;;;;;;;2.05;0.85;;;20.70;62.70;;;;;;5056901;28;20103;-73
2022/10/25 12:43:45;;;;;;;5.60;0.88;;;20.70;63.80;;;;;;5075265;28;20025;-74
2022/10/25 12:46:23;;;;;;;5.90;0.88;;;20.60;64.20;;;;;;5075324;28;20040;-74
2022/10/25 12:49:10;;;;;;;2.45;0.80;;;20.50;64.40;;;;;;5074489;28;20437;-74
2022/10/25 12:51:55;;;;;;;2.83;0.65;;;20.40;64.70;;;;;;5057006;28;20093;-74
2022/10/25 12:54:48;;;;;;;2.13;1.30;;;20.40;65.50;;;;;;5074474;28;20028;-73
2022/10/25 12:57:35;;;;;;;1.98;0.90;;;20.30;65.20;;;;;;5056652;28;20135;-74
2022/10/25 13:00:03;;;;;;;3.38;0.90;;;20.20;66.10;;;;;;5074383;28;20082;-73
2022/10/25 13:02:44;;;;;;;1.63;0.77;;;20.30;65.80;;;;;;5056542;28;20029;-74
2022/10/25 13:05:40;;;;;;;1.25;0.80;;;20.20;66.20;;;;;;5074291;28;20028;-74
2022/10/25 13:08:08;;;;;;;4.82;1.10;;;20.20;66.60;;;;;;5074290;28;20461;-74
2022/10/25 13:10:41;;;;;;;3.70;1.45;;;20.10;66.50;;;;;;5074124;28;20024;-73